sensor_id;sensor_type;location;lat;lon;timestamp;temperature;humidity
10046;DHT22;5063;50.878;4.742;2023-06-22T00:01:59;20.60;99.90
10046;DHT22;5063;50.878;4.742;2023-06-22T00:04:24;20.60;99.90
10046;DHT22;5063;50.878;4.742;2023-06-22T00:06:50;20.60;99.90
10046;DHT22;5063;50.878;4.742;2023-06-22T00:09:16;20.60;99.90
10046;DHT22;5063;50.878;4.742;2023-06-22T00:11:42;20.60;99.90
10046;DHT22;5063;50.878;4.742;2023-06-22T00:14:08;20.50;99.90
10046;DHT22;5063;50.878;4.742;2023-06-22T00:16:34;20.40;99.90
10046;DHT22;5063;50.878;4.742;2023-06-22T00:19:00;20.30;99.90
10046;DHT22;5063;50.878;4.742;2023-06-22T00:21:26;20.20;99.90
10046;DHT22;5063;50.878;4.742;2023-06-22T00:23:52;20.10;99.90
10046;DHT22;5063;50.878;4.742;2023-06-22T00:26:19;20.00;99.90
10046;DHT22;5063;50.878;4.742;2023-06-22T00:28:45;19.90;99.90
10046;DHT22;5063;50.878;4.742;2023-06-22T00:31:10;19.90;99.90
10046;DHT22;5063;50.878;4.742;2023-06-22T00:33:36;19.80;99.90
10046;DHT22;5063;50.878;4.742;2023-06-22T00:36:03;19.70;99.90
10046;DHT22;5063;50.878;4.742;2023-06-22T00:38:29;19.60;99.90
10046;DHT22;5063;50.878;4.742;2023-06-22T00:40:54;19.60;99.90
10046;DHT22;5063;50.878;4.742;2023-06-22T00:43:20;19.50;99.90
10046;DHT22;5063;50.878;4.742;2023-06-22T00:45:46;19.40;99.90
10046;DHT22;5063;50.878;4.742;2023-06-22T00:48:14;19.30;99.90
10046;DHT22;5063;50.878;4.742;2023-06-22T00:50:40;19.20;99.90
10046;DHT22;5063;50.878;4.742;2023-06-22T00:53:07;19.10;99.90
10046;DHT22;5063;50.878;4.742;2023-06-22T00:55:39;19.10;99.90
10046;DHT22;5063;50.878;4.742;2023-06-22T00:58:09;19.10;99.90
10046;DHT22;5063;50.878;4.742;2023-06-22T01:00:36;19.10;99.90
10046;DHT22;5063;50.878;4.742;2023-06-22T01:03:03;19.20;99.90
10046;DHT22;5063;50.878;4.742;2023-06-22T01:05:29;19.30;99.90
10046;DHT22;5063;50.878;4.742;2023-06-22T01:08:15;19.30;99.90
10046;DHT22;5063;50.878;4.742;2023-06-22T01:10:54;19.40;99.90
10046;DHT22;5063;50.878;4.742;2023-06-22T01:13:26;19.50;99.90
10046;DHT22;5063;50.878;4.742;2023-06-22T01:16:00;19.60;99.90
10046;DHT22;5063;50.878;4.742;2023-06-22T01:18:30;19.60;99.90
10046;DHT22;5063;50.878;4.742;2023-06-22T01:20:56;19.70;99.90
10046;DHT22;5063;50.878;4.742;2023-06-22T01:23:33;19.70;99.90
10046;DHT22;5063;50.878;4.742;2023-06-22T01:29:04;19.80;99.90
10046;DHT22;5063;50.878;4.742;2023-06-22T01:31:31;19.80;99.90
10046;DHT22;5063;50.878;4.742;2023-06-22T01:34:03;19.70;99.90
10046;DHT22;5063;50.878;4.742;2023-06-22T01:36:31;19.60;99.90
10046;DHT22;5063;50.878;4.742;2023-06-22T01:38:58;19.50;99.90
10046;DHT22;5063;50.878;4.742;2023-06-22T01:41:29;19.40;99.90
10046;DHT22;5063;50.878;4.742;2023-06-22T01:43:56;19.30;99.90
10046;DHT22;5063;50.878;4.742;2023-06-22T01:46:23;19.30;99.90
10046;DHT22;5063;50.878;4.742;2023-06-22T01:48:49;19.20;99.90
10046;DHT22;5063;50.878;4.742;2023-06-22T01:51:16;19.10;99.90
10046;DHT22;5063;50.878;4.742;2023-06-22T01:53:42;19.00;99.90
10046;DHT22;5063;50.878;4.742;2023-06-22T01:56:08;18.90;99.90
10046;DHT22;5063;50.878;4.742;2023-06-22T01:58:37;18.80;99.90
10046;DHT22;5063;50.878;4.742;2023-06-22T02:01:13;18.70;99.90
10046;DHT22;5063;50.878;4.742;2023-06-22T02:03:48;18.60;99.90
10046;DHT22;5063;50.878;4.742;2023-06-22T02:06:25;18.50;99.90
10046;DHT22;5063;50.878;4.742;2023-06-22T02:08:59;18.50;99.90
10046;DHT22;5063;50.878;4.742;2023-06-22T02:11:28;18.40;99.90
10046;DHT22;5063;50.878;4.742;2023-06-22T02:13:56;18.40;99.90
10046;DHT22;5063;50.878;4.742;2023-06-22T02:16:23;18.40;99.90
10046;DHT22;5063;50.878;4.742;2023-06-22T02:18:50;18.40;99.90
10046;DHT22;5063;50.878;4.742;2023-06-22T02:21:20;18.50;99.90
10046;DHT22;5063;50.878;4.742;2023-06-22T02:23:46;18.50;99.90
10046;DHT22;5063;50.878;4.742;2023-06-22T02:26:13;18.50;99.90
10046;DHT22;5063;50.878;4.742;2023-06-22T02:28:39;18.50;99.90
10046;DHT22;5063;50.878;4.742;2023-06-22T02:31:05;18.60;99.90
10046;DHT22;5063;50.878;4.742;2023-06-22T02:33:30;18.50;99.90
10046;DHT22;5063;50.878;4.742;2023-06-22T02:35:56;18.60;99.90
10046;DHT22;5063;50.878;4.742;2023-06-22T02:38:22;18.60;99.90
10046;DHT22;5063;50.878;4.742;2023-06-22T02:40:50;18.60;99.90
10046;DHT22;5063;50.878;4.742;2023-06-22T02:43:16;18.60;99.90
10046;DHT22;5063;50.878;4.742;2023-06-22T02:45:42;18.70;99.90
10046;DHT22;5063;50.878;4.742;2023-06-22T02:48:08;18.80;99.90
10046;DHT22;5063;50.878;4.742;2023-06-22T02:50:34;18.80;99.90
10046;DHT22;5063;50.878;4.742;2023-06-22T02:52:59;18.90;99.90
10046;DHT22;5063;50.878;4.742;2023-06-22T02:55:25;18.90;99.90
10046;DHT22;5063;50.878;4.742;2023-06-22T02:57:51;18.90;99.90
10046;DHT22;5063;50.878;4.742;2023-06-22T03:00:19;18.90;99.90
10046;DHT22;5063;50.878;4.742;2023-06-22T03:02:48;18.80;99.90
10046;DHT22;5063;50.878;4.742;2023-06-22T03:05:15;18.80;99.90
10046;DHT22;5063;50.878;4.742;2023-06-22T03:07:43;18.80;99.90
10046;DHT22;5063;50.878;4.742;2023-06-22T03:10:10;18.70;99.90
10046;DHT22;5063;50.878;4.742;2023-06-22T03:12:40;18.80;99.90
10046;DHT22;5063;50.878;4.742;2023-06-22T03:15:14;18.80;99.90
10046;DHT22;5063;50.878;4.742;2023-06-22T03:17:40;18.80;99.90
10046;DHT22;5063;50.878;4.742;2023-06-22T03:20:07;18.90;99.90
10046;DHT22;5063;50.878;4.742;2023-06-22T03:22:37;18.90;99.90
10046;DHT22;5063;50.878;4.742;2023-06-22T03:25:04;19.00;99.90
10046;DHT22;5063;50.878;4.742;2023-06-22T03:27:29;19.00;99.90
10046;DHT22;5063;50.878;4.742;2023-06-22T03:29:57;19.00;99.90
10046;DHT22;5063;50.878;4.742;2023-06-22T03:32:23;19.00;99.90
10046;DHT22;5063;50.878;4.742;2023-06-22T03:34:48;19.00;99.90
10046;DHT22;5063;50.878;4.742;2023-06-22T03:37:14;19.00;99.90
10046;DHT22;5063;50.878;4.742;2023-06-22T03:39:41;19.10;99.90
10046;DHT22;5063;50.878;4.742;2023-06-22T03:42:07;19.00;99.90
10046;DHT22;5063;50.878;4.742;2023-06-22T03:44:34;19.10;99.90
10046;DHT22;5063;50.878;4.742;2023-06-22T03:47:03;19.10;99.90
10046;DHT22;5063;50.878;4.742;2023-06-22T03:49:29;19.10;99.90
10046;DHT22;5063;50.878;4.742;2023-06-22T03:51:55;19.10;99.90
10046;DHT22;5063;50.878;4.742;2023-06-22T03:54:21;19.20;99.90
10046;DHT22;5063;50.878;4.742;2023-06-22T03:56:46;19.20;99.90
10046;DHT22;5063;50.878;4.742;2023-06-22T03:59:12;19.20;99.90
10046;DHT22;5063;50.878;4.742;2023-06-22T04:01:38;19.20;99.90
10046;DHT22;5063;50.878;4.742;2023-06-22T04:04:04;19.20;99.90
10046;DHT22;5063;50.878;4.742;2023-06-22T04:06:29;19.30;99.90
10046;DHT22;5063;50.878;4.742;2023-06-22T04:08:55;19.30;99.90
10046;DHT22;5063;50.878;4.742;2023-06-22T04:11:22;19.40;99.90
10046;DHT22;5063;50.878;4.742;2023-06-22T04:13:48;19.40;99.90
10046;DHT22;5063;50.878;4.742;2023-06-22T04:16:14;19.50;99.90
10046;DHT22;5063;50.878;4.742;2023-06-22T04:18:40;19.40;99.90
10046;DHT22;5063;50.878;4.742;2023-06-22T04:21:07;19.40;99.90
10046;DHT22;5063;50.878;4.742;2023-06-22T04:23:33;19.50;99.90
10046;DHT22;5063;50.878;4.742;2023-06-22T04:25:58;19.40;99.90
10046;DHT22;5063;50.878;4.742;2023-06-22T04:28:27;19.50;99.90
10046;DHT22;5063;50.878;4.742;2023-06-22T04:30:53;19.50;99.90
10046;DHT22;5063;50.878;4.742;2023-06-22T04:33:23;19.40;99.90
10046;DHT22;5063;50.878;4.742;2023-06-22T04:35:49;19.40;99.90
10046;DHT22;5063;50.878;4.742;2023-06-22T04:38:16;19.40;99.90
10046;DHT22;5063;50.878;4.742;2023-06-22T04:40:42;19.40;99.90
10046;DHT22;5063;50.878;4.742;2023-06-22T04:43:08;19.40;99.90
10046;DHT22;5063;50.878;4.742;2023-06-22T04:45:35;19.40;99.90
10046;DHT22;5063;50.878;4.742;2023-06-22T04:48:04;19.30;99.90
10046;DHT22;5063;50.878;4.742;2023-06-22T04:50:30;19.30;99.90
10046;DHT22;5063;50.878;4.742;2023-06-22T04:52:56;19.30;99.90
10046;DHT22;5063;50.878;4.742;2023-06-22T04:55:23;19.40;99.90
10046;DHT22;5063;50.878;4.742;2023-06-22T04:57:51;19.40;99.90
10046;DHT22;5063;50.878;4.742;2023-06-22T05:00:17;19.50;99.90
10046;DHT22;5063;50.878;4.742;2023-06-22T05:02:45;19.60;99.90
10046;DHT22;5063;50.878;4.742;2023-06-22T05:05:12;19.60;99.90
10046;DHT22;5063;50.878;4.742;2023-06-22T05:07:46;19.80;99.90
10046;DHT22;5063;50.878;4.742;2023-06-22T05:10:14;19.90;99.90
10046;DHT22;5063;50.878;4.742;2023-06-22T05:12:40;20.10;99.90
10046;DHT22;5063;50.878;4.742;2023-06-22T05:15:07;20.30;99.90
10046;DHT22;5063;50.878;4.742;2023-06-22T05:17:34;20.40;99.90
10046;DHT22;5063;50.878;4.742;2023-06-22T05:20:00;20.50;99.90
10046;DHT22;5063;50.878;4.742;2023-06-22T05:22:26;20.50;99.90
10046;DHT22;5063;50.878;4.742;2023-06-22T05:24:51;20.60;99.90
10046;DHT22;5063;50.878;4.742;2023-06-22T05:27:17;20.60;99.90
10046;DHT22;5063;50.878;4.742;2023-06-22T05:29:43;20.70;99.90
10046;DHT22;5063;50.878;4.742;2023-06-22T05:32:09;20.70;99.90
10046;DHT22;5063;50.878;4.742;2023-06-22T05:34:35;20.70;99.90
10046;DHT22;5063;50.878;4.742;2023-06-22T05:37:01;20.70;99.90
10046;DHT22;5063;50.878;4.742;2023-06-22T05:39:27;20.80;99.90
10046;DHT22;5063;50.878;4.742;2023-06-22T05:41:53;20.80;99.90
10046;DHT22;5063;50.878;4.742;2023-06-22T05:44:19;20.80;99.90
10046;DHT22;5063;50.878;4.742;2023-06-22T05:46:45;20.80;99.90
10046;DHT22;5063;50.878;4.742;2023-06-22T05:49:12;20.80;99.90
10046;DHT22;5063;50.878;4.742;2023-06-22T05:51:39;20.90;99.90
10046;DHT22;5063;50.878;4.742;2023-06-22T05:54:05;20.80;99.90
10046;DHT22;5063;50.878;4.742;2023-06-22T05:56:30;20.90;99.90
10046;DHT22;5063;50.878;4.742;2023-06-22T05:58:56;20.80;99.90
10046;DHT22;5063;50.878;4.742;2023-06-22T06:01:22;20.80;99.90
10046;DHT22;5063;50.878;4.742;2023-06-22T06:03:48;20.80;99.90
10046;DHT22;5063;50.878;4.742;2023-06-22T06:06:15;20.80;99.90
10046;DHT22;5063;50.878;4.742;2023-06-22T06:08:41;20.90;99.90
10046;DHT22;5063;50.878;4.742;2023-06-22T06:11:07;21.00;99.90
10046;DHT22;5063;50.878;4.742;2023-06-22T06:13:33;21.10;99.90
10046;DHT22;5063;50.878;4.742;2023-06-22T06:15:58;21.20;99.90
10046;DHT22;5063;50.878;4.742;2023-06-22T06:18:25;21.20;99.90
10046;DHT22;5063;50.878;4.742;2023-06-22T06:20:50;21.10;99.90
10046;DHT22;5063;50.878;4.742;2023-06-22T06:23:16;21.00;99.90
10046;DHT22;5063;50.878;4.742;2023-06-22T06:25:42;21.10;99.90
10046;DHT22;5063;50.878;4.742;2023-06-22T06:28:08;21.20;99.90
10046;DHT22;5063;50.878;4.742;2023-06-22T06:30:34;21.30;99.90
10046;DHT22;5063;50.878;4.742;2023-06-22T06:33:02;21.60;99.90
10046;DHT22;5063;50.878;4.742;2023-06-22T06:35:28;21.80;99.90
10046;DHT22;5063;50.878;4.742;2023-06-22T06:37:54;21.90;99.90
10046;DHT22;5063;50.878;4.742;2023-06-22T06:40:20;22.10;99.90
10046;DHT22;5063;50.878;4.742;2023-06-22T06:42:47;22.30;99.90
10046;DHT22;5063;50.878;4.742;2023-06-22T06:45:21;22.40;99.90
10046;DHT22;5063;50.878;4.742;2023-06-22T06:47:53;22.60;99.90
10046;DHT22;5063;50.878;4.742;2023-06-22T06:50:18;22.70;99.90
10046;DHT22;5063;50.878;4.742;2023-06-22T06:52:44;22.80;99.90
10046;DHT22;5063;50.878;4.742;2023-06-22T06:55:10;22.90;99.90
10046;DHT22;5063;50.878;4.742;2023-06-22T06:57:38;22.90;99.90
10046;DHT22;5063;50.878;4.742;2023-06-22T07:00:05;22.90;99.90
10046;DHT22;5063;50.878;4.742;2023-06-22T07:02:35;22.80;99.90
10046;DHT22;5063;50.878;4.742;2023-06-22T07:05:01;22.80;99.90
10046;DHT22;5063;50.878;4.742;2023-06-22T07:07:30;22.60;99.90
10046;DHT22;5063;50.878;4.742;2023-06-22T07:09:55;22.60;99.90
10046;DHT22;5063;50.878;4.742;2023-06-22T07:12:21;22.50;99.90
10046;DHT22;5063;50.878;4.742;2023-06-22T07:14:47;22.40;99.90
10046;DHT22;5063;50.878;4.742;2023-06-22T07:17:13;22.40;99.90
10046;DHT22;5063;50.878;4.742;2023-06-22T07:19:39;22.10;99.90
10046;DHT22;5063;50.878;4.742;2023-06-22T07:22:05;22.00;99.90
10046;DHT22;5063;50.878;4.742;2023-06-22T07:24:31;22.00;99.90
10046;DHT22;5063;50.878;4.742;2023-06-22T07:26:58;22.10;99.90
10046;DHT22;5063;50.878;4.742;2023-06-22T07:29:25;22.30;99.90
10046;DHT22;5063;50.878;4.742;2023-06-22T07:31:52;22.60;99.90
10046;DHT22;5063;50.878;4.742;2023-06-22T07:34:18;22.90;99.90
10046;DHT22;5063;50.878;4.742;2023-06-22T07:36:44;23.10;99.90
10046;DHT22;5063;50.878;4.742;2023-06-22T07:39:11;23.10;99.90
10046;DHT22;5063;50.878;4.742;2023-06-22T07:41:39;22.90;99.90
10046;DHT22;5063;50.878;4.742;2023-06-22T07:44:06;22.80;99.90
10046;DHT22;5063;50.878;4.742;2023-06-22T07:46:33;22.70;99.90
10046;DHT22;5063;50.878;4.742;2023-06-22T07:48:59;22.50;99.90
10046;DHT22;5063;50.878;4.742;2023-06-22T07:51:25;22.40;99.90
10046;DHT22;5063;50.878;4.742;2023-06-22T07:53:51;22.40;99.90
10046;DHT22;5063;50.878;4.742;2023-06-22T07:56:17;22.20;99.90
10046;DHT22;5063;50.878;4.742;2023-06-22T07:58:47;22.20;99.90
10046;DHT22;5063;50.878;4.742;2023-06-22T08:01:14;22.20;99.90
10046;DHT22;5063;50.878;4.742;2023-06-22T08:03:39;22.10;99.90
10046;DHT22;5063;50.878;4.742;2023-06-22T08:06:07;22.10;99.90
10046;DHT22;5063;50.878;4.742;2023-06-22T08:08:35;22.10;99.90
10046;DHT22;5063;50.878;4.742;2023-06-22T08:11:01;22.00;99.90
10046;DHT22;5063;50.878;4.742;2023-06-22T08:13:26;21.90;99.90
10046;DHT22;5063;50.878;4.742;2023-06-22T08:15:52;21.70;99.90
10046;DHT22;5063;50.878;4.742;2023-06-22T08:18:18;21.50;99.90
10046;DHT22;5063;50.878;4.742;2023-06-22T08:20:43;21.40;99.90
10046;DHT22;5063;50.878;4.742;2023-06-22T08:23:09;21.40;99.90
10046;DHT22;5063;50.878;4.742;2023-06-22T08:25:35;21.40;99.90
10046;DHT22;5063;50.878;4.742;2023-06-22T08:28:02;21.30;99.90
10046;DHT22;5063;50.878;4.742;2023-06-22T08:30:28;21.40;99.90
10046;DHT22;5063;50.878;4.742;2023-06-22T08:32:53;21.30;99.90
10046;DHT22;5063;50.878;4.742;2023-06-22T08:35:22;21.30;99.90
10046;DHT22;5063;50.878;4.742;2023-06-22T08:37:48;21.30;99.90
10046;DHT22;5063;50.878;4.742;2023-06-22T08:40:18;21.40;99.90
10046;DHT22;5063;50.878;4.742;2023-06-22T08:42:45;21.40;99.90
10046;DHT22;5063;50.878;4.742;2023-06-22T08:45:12;21.50;99.90
10046;DHT22;5063;50.878;4.742;2023-06-22T08:47:38;21.70;99.90
10046;DHT22;5063;50.878;4.742;2023-06-22T08:50:05;21.70;99.90
10046;DHT22;5063;50.878;4.742;2023-06-22T08:52:32;21.90;99.90
10046;DHT22;5063;50.878;4.742;2023-06-22T08:54:57;22.00;99.90
10046;DHT22;5063;50.878;4.742;2023-06-22T08:57:27;22.10;99.90
10046;DHT22;5063;50.878;4.742;2023-06-22T08:59:53;22.20;99.90
10046;DHT22;5063;50.878;4.742;2023-06-22T09:02:19;22.30;99.90
10046;DHT22;5063;50.878;4.742;2023-06-22T09:04:48;22.40;99.90
10046;DHT22;5063;50.878;4.742;2023-06-22T09:07:15;22.40;99.90
10046;DHT22;5063;50.878;4.742;2023-06-22T09:09:47;22.40;99.90
10046;DHT22;5063;50.878;4.742;2023-06-22T09:12:13;22.40;99.90
10046;DHT22;5063;50.878;4.742;2023-06-22T09:14:39;22.40;99.90
10046;DHT22;5063;50.878;4.742;2023-06-22T09:17:05;22.30;99.90
10046;DHT22;5063;50.878;4.742;2023-06-22T09:19:31;22.20;99.90
10046;DHT22;5063;50.878;4.742;2023-06-22T09:21:57;22.10;99.90
10046;DHT22;5063;50.878;4.742;2023-06-22T09:24:23;22.00;99.90
10046;DHT22;5063;50.878;4.742;2023-06-22T09:26:48;22.00;99.90
10046;DHT22;5063;50.878;4.742;2023-06-22T09:29:14;22.00;99.90
10046;DHT22;5063;50.878;4.742;2023-06-22T09:31:40;21.90;99.90
10046;DHT22;5063;50.878;4.742;2023-06-22T09:34:06;21.70;99.90
10046;DHT22;5063;50.878;4.742;2023-06-22T09:36:32;21.60;99.90
10046;DHT22;5063;50.878;4.742;2023-06-22T09:38:58;21.50;99.90
10046;DHT22;5063;50.878;4.742;2023-06-22T09:41:24;21.40;99.90
10046;DHT22;5063;50.878;4.742;2023-06-22T09:43:50;21.20;99.90
10046;DHT22;5063;50.878;4.742;2023-06-22T09:46:17;21.10;99.90
10046;DHT22;5063;50.878;4.742;2023-06-22T09:48:43;21.00;99.90
10046;DHT22;5063;50.878;4.742;2023-06-22T09:51:09;20.90;99.90
10046;DHT22;5063;50.878;4.742;2023-06-22T09:53:35;20.70;99.90
10046;DHT22;5063;50.878;4.742;2023-06-22T09:56:01;20.60;99.90
10046;DHT22;5063;50.878;4.742;2023-06-22T09:58:27;20.50;99.90
10046;DHT22;5063;50.878;4.742;2023-06-22T10:00:53;20.40;99.90
10046;DHT22;5063;50.878;4.742;2023-06-22T10:03:20;20.30;99.90
10046;DHT22;5063;50.878;4.742;2023-06-22T10:05:46;20.20;99.90
10046;DHT22;5063;50.878;4.742;2023-06-22T10:08:12;20.10;99.90
10046;DHT22;5063;50.878;4.742;2023-06-22T10:10:37;20.00;99.90
10046;DHT22;5063;50.878;4.742;2023-06-22T10:13:09;19.90;99.90
10046;DHT22;5063;50.878;4.742;2023-06-22T10:15:37;19.80;99.90
10046;DHT22;5063;50.878;4.742;2023-06-22T10:18:03;19.60;99.90
10046;DHT22;5063;50.878;4.742;2023-06-22T10:20:29;19.50;99.90
10046;DHT22;5063;50.878;4.742;2023-06-22T10:22:55;19.40;99.90
10046;DHT22;5063;50.878;4.742;2023-06-22T10:25:21;19.40;99.90
10046;DHT22;5063;50.878;4.742;2023-06-22T10:27:47;19.30;99.90
10046;DHT22;5063;50.878;4.742;2023-06-22T10:30:14;19.20;99.90
10046;DHT22;5063;50.878;4.742;2023-06-22T10:32:41;19.10;99.90
10046;DHT22;5063;50.878;4.742;2023-06-22T10:35:08;18.90;99.90
10046;DHT22;5063;50.878;4.742;2023-06-22T10:37:36;18.70;99.90
10046;DHT22;5063;50.878;4.742;2023-06-22T10:40:03;18.70;99.90
10046;DHT22;5063;50.878;4.742;2023-06-22T10:42:29;18.60;99.90
10046;DHT22;5063;50.878;4.742;2023-06-22T10:44:55;18.60;99.90
10046;DHT22;5063;50.878;4.742;2023-06-22T10:47:21;18.50;99.90
10046;DHT22;5063;50.878;4.742;2023-06-22T10:49:46;18.60;99.90
10046;DHT22;5063;50.878;4.742;2023-06-22T10:52:12;18.60;99.90
10046;DHT22;5063;50.878;4.742;2023-06-22T10:54:38;18.50;99.90
10046;DHT22;5063;50.878;4.742;2023-06-22T10:57:04;18.50;99.90
10046;DHT22;5063;50.878;4.742;2023-06-22T10:59:30;18.30;99.90
10046;DHT22;5063;50.878;4.742;2023-06-22T11:01:56;18.30;99.90
10046;DHT22;5063;50.878;4.742;2023-06-22T11:04:23;18.30;99.90
10046;DHT22;5063;50.878;4.742;2023-06-22T11:06:49;18.30;99.90
10046;DHT22;5063;50.878;4.742;2023-06-22T11:09:15;18.30;99.90
10046;DHT22;5063;50.878;4.742;2023-06-22T11:11:49;18.50;99.90
10046;DHT22;5063;50.878;4.742;2023-06-22T11:14:15;18.70;99.90
10046;DHT22;5063;50.878;4.742;2023-06-22T11:16:41;18.80;99.90
10046;DHT22;5063;50.878;4.742;2023-06-22T11:19:07;18.90;99.90
10046;DHT22;5063;50.878;4.742;2023-06-22T11:21:33;18.90;99.90
10046;DHT22;5063;50.878;4.742;2023-06-22T11:24:02;18.90;99.90
10046;DHT22;5063;50.878;4.742;2023-06-22T11:26:28;19.00;99.90
10046;DHT22;5063;50.878;4.742;2023-06-22T11:28:54;19.10;99.90
10046;DHT22;5063;50.878;4.742;2023-06-22T11:31:20;19.10;99.90
10046;DHT22;5063;50.878;4.742;2023-06-22T11:33:46;19.00;99.90
10046;DHT22;5063;50.878;4.742;2023-06-22T11:36:12;18.80;99.90
10046;DHT22;5063;50.878;4.742;2023-06-22T11:38:38;18.80;99.90
10046;DHT22;5063;50.878;4.742;2023-06-22T11:41:08;18.70;99.90
10046;DHT22;5063;50.878;4.742;2023-06-22T11:43:34;18.70;99.90
10046;DHT22;5063;50.878;4.742;2023-06-22T11:46:03;18.60;99.90
10046;DHT22;5063;50.878;4.742;2023-06-22T11:48:29;18.50;99.90
10046;DHT22;5063;50.878;4.742;2023-06-22T11:50:55;18.50;99.90
10046;DHT22;5063;50.878;4.742;2023-06-22T11:53:22;18.50;99.90
10046;DHT22;5063;50.878;4.742;2023-06-22T11:55:48;18.50;99.90
10046;DHT22;5063;50.878;4.742;2023-06-22T11:58:14;18.50;99.90
10046;DHT22;5063;50.878;4.742;2023-06-22T12:00:40;18.50;99.90
10046;DHT22;5063;50.878;4.742;2023-06-22T12:03:07;18.50;99.90
10046;DHT22;5063;50.878;4.742;2023-06-22T12:05:33;18.50;99.90
10046;DHT22;5063;50.878;4.742;2023-06-22T12:07:59;18.50;99.90
10046;DHT22;5063;50.878;4.742;2023-06-22T12:10:25;18.50;99.90
10046;DHT22;5063;50.878;4.742;2023-06-22T12:12:51;18.60;99.90
10046;DHT22;5063;50.878;4.742;2023-06-22T12:15:17;18.60;99.90
10046;DHT22;5063;50.878;4.742;2023-06-22T12:17:43;18.50;99.90
10046;DHT22;5063;50.878;4.742;2023-06-22T12:20:09;18.50;99.90
10046;DHT22;5063;50.878;4.742;2023-06-22T12:22:35;18.50;99.90
10046;DHT22;5063;50.878;4.742;2023-06-22T12:25:03;18.40;99.90
10046;DHT22;5063;50.878;4.742;2023-06-22T12:27:29;18.40;99.90
10046;DHT22;5063;50.878;4.742;2023-06-22T12:29:56;18.40;99.90
10046;DHT22;5063;50.878;4.742;2023-06-22T12:32:24;18.40;99.90
10046;DHT22;5063;50.878;4.742;2023-06-22T12:34:51;18.30;99.90
10046;DHT22;5063;50.878;4.742;2023-06-22T12:37:17;18.30;99.90
10046;DHT22;5063;50.878;4.742;2023-06-22T12:39:43;18.40;99.90
10046;DHT22;5063;50.878;4.742;2023-06-22T12:42:09;18.40;99.90
10046;DHT22;5063;50.878;4.742;2023-06-22T12:44:39;18.40;99.90
10046;DHT22;5063;50.878;4.742;2023-06-22T12:47:07;18.40;99.90
10046;DHT22;5063;50.878;4.742;2023-06-22T12:49:36;18.40;99.90
10046;DHT22;5063;50.878;4.742;2023-06-22T12:52:03;18.40;99.90
10046;DHT22;5063;50.878;4.742;2023-06-22T12:54:29;18.50;99.90
10046;DHT22;5063;50.878;4.742;2023-06-22T12:56:55;18.40;99.90
10046;DHT22;5063;50.878;4.742;2023-06-22T12:59:21;18.50;99.90
10046;DHT22;5063;50.878;4.742;2023-06-22T13:01:47;18.50;99.90
10046;DHT22;5063;50.878;4.742;2023-06-22T13:04:13;18.30;99.90
10046;DHT22;5063;50.878;4.742;2023-06-22T13:06:44;18.50;99.90
10046;DHT22;5063;50.878;4.742;2023-06-22T13:09:13;18.50;99.90
10046;DHT22;5063;50.878;4.742;2023-06-22T13:11:39;18.50;99.90
10046;DHT22;5063;50.878;4.742;2023-06-22T13:14:05;18.50;99.90
10046;DHT22;5063;50.878;4.742;2023-06-22T13:16:31;18.50;99.90
10046;DHT22;5063;50.878;4.742;2023-06-22T13:18:56;18.50;99.90
10046;DHT22;5063;50.878;4.742;2023-06-22T13:21:22;18.40;99.90
10046;DHT22;5063;50.878;4.742;2023-06-22T13:23:48;18.30;99.90
10046;DHT22;5063;50.878;4.742;2023-06-22T13:26:14;18.30;99.90
10046;DHT22;5063;50.878;4.742;2023-06-22T13:28:39;18.40;99.90
10046;DHT22;5063;50.878;4.742;2023-06-22T13:31:05;18.30;99.90
10046;DHT22;5063;50.878;4.742;2023-06-22T13:33:31;18.40;99.90
10046;DHT22;5063;50.878;4.742;2023-06-22T13:35:57;18.30;99.90
10046;DHT22;5063;50.878;4.742;2023-06-22T13:38:22;18.30;99.90
10046;DHT22;5063;50.878;4.742;2023-06-22T13:40:49;18.40;99.90
10046;DHT22;5063;50.878;4.742;2023-06-22T13:43:16;18.30;99.90
10046;DHT22;5063;50.878;4.742;2023-06-22T13:45:42;18.30;99.90
10046;DHT22;5063;50.878;4.742;2023-06-22T13:48:09;18.30;99.90
10046;DHT22;5063;50.878;4.742;2023-06-22T13:50:34;18.30;99.90
10046;DHT22;5063;50.878;4.742;2023-06-22T13:53:00;18.40;99.90
10046;DHT22;5063;50.878;4.742;2023-06-22T13:55:26;18.40;99.90
10046;DHT22;5063;50.878;4.742;2023-06-22T13:57:52;18.30;99.90
10046;DHT22;5063;50.878;4.742;2023-06-22T14:00:18;18.40;99.90
10046;DHT22;5063;50.878;4.742;2023-06-22T14:02:44;18.40;99.90
10046;DHT22;5063;50.878;4.742;2023-06-22T14:05:10;18.40;99.90
10046;DHT22;5063;50.878;4.742;2023-06-22T14:07:36;18.50;99.90
10046;DHT22;5063;50.878;4.742;2023-06-22T14:10:03;18.50;99.90
10046;DHT22;5063;50.878;4.742;2023-06-22T14:12:29;18.40;99.90
10046;DHT22;5063;50.878;4.742;2023-06-22T14:14:55;18.40;99.90
10046;DHT22;5063;50.878;4.742;2023-06-22T14:17:21;18.40;99.90
10046;DHT22;5063;50.878;4.742;2023-06-22T14:19:51;18.40;99.90
10046;DHT22;5063;50.878;4.742;2023-06-22T14:22:21;18.30;99.90
10046;DHT22;5063;50.878;4.742;2023-06-22T14:24:48;18.30;99.90
10046;DHT22;5063;50.878;4.742;2023-06-22T14:27:14;18.40;99.90
10046;DHT22;5063;50.878;4.742;2023-06-22T14:29:40;18.40;99.90
10046;DHT22;5063;50.878;4.742;2023-06-22T14:32:07;18.40;99.90
10046;DHT22;5063;50.878;4.742;2023-06-22T14:34:33;18.40;99.90
10046;DHT22;5063;50.878;4.742;2023-06-22T14:37:02;18.30;99.90
10046;DHT22;5063;50.878;4.742;2023-06-22T14:39:28;18.30;99.90
10046;DHT22;5063;50.878;4.742;2023-06-22T14:41:53;18.30;99.90
10046;DHT22;5063;50.878;4.742;2023-06-22T14:44:19;18.30;99.90
10046;DHT22;5063;50.878;4.742;2023-06-22T14:46:45;18.20;99.90
10046;DHT22;5063;50.878;4.742;2023-06-22T14:49:10;18.30;99.90
10046;DHT22;5063;50.878;4.742;2023-06-22T14:51:36;18.30;99.90
10046;DHT22;5063;50.878;4.742;2023-06-22T14:54:02;18.30;99.90
10046;DHT22;5063;50.878;4.742;2023-06-22T14:56:28;18.30;99.90
10046;DHT22;5063;50.878;4.742;2023-06-22T14:58:53;18.30;99.90
10046;DHT22;5063;50.878;4.742;2023-06-22T15:01:19;18.30;99.90
10046;DHT22;5063;50.878;4.742;2023-06-22T15:03:45;18.30;99.90
10046;DHT22;5063;50.878;4.742;2023-06-22T15:06:11;18.30;99.90
10046;DHT22;5063;50.878;4.742;2023-06-22T15:08:37;18.40;99.90
10046;DHT22;5063;50.878;4.742;2023-06-22T15:11:04;18.40;99.90
10046;DHT22;5063;50.878;4.742;2023-06-22T15:13:33;18.50;99.90
10046;DHT22;5063;50.878;4.742;2023-06-22T15:16:01;18.60;99.90
10046;DHT22;5063;50.878;4.742;2023-06-22T15:18:28;18.60;99.90
10046;DHT22;5063;50.878;4.742;2023-06-22T15:20:54;18.60;99.90
10046;DHT22;5063;50.878;4.742;2023-06-22T15:23:19;18.60;99.90
10046;DHT22;5063;50.878;4.742;2023-06-22T15:25:46;18.70;99.90
10046;DHT22;5063;50.878;4.742;2023-06-22T15:28:12;18.80;99.90
10046;DHT22;5063;50.878;4.742;2023-06-22T15:30:38;18.90;99.90
10046;DHT22;5063;50.878;4.742;2023-06-22T15:33:04;19.00;99.90
10046;DHT22;5063;50.878;4.742;2023-06-22T15:35:30;19.00;99.90
10046;DHT22;5063;50.878;4.742;2023-06-22T15:37:56;19.00;99.90
10046;DHT22;5063;50.878;4.742;2023-06-22T15:40:22;19.10;99.90
10046;DHT22;5063;50.878;4.742;2023-06-22T15:42:51;19.00;99.90
10046;DHT22;5063;50.878;4.742;2023-06-22T15:45:17;19.00;99.90